sensor_id;sensor_type;location;lat;lon;timestamp;temperature;humidity
23475;DHT22;11910;52.086;21.066;2023-04-24T00:02:11;12.90;68.30
23475;DHT22;11910;52.086;21.066;2023-04-24T00:04:38;12.90;68.10
23475;DHT22;11910;52.086;21.066;2023-04-24T00:07:07;12.80;68.40
23475;DHT22;11910;52.086;21.066;2023-04-24T00:09:35;12.90;66.60
23475;DHT22;11910;52.086;21.066;2023-04-24T00:12:01;12.90;66.70
23475;DHT22;11910;52.086;21.066;2023-04-24T00:14:29;12.90;66.10
23475;DHT22;11910;52.086;21.066;2023-04-24T00:16:54;12.90;66.20
23475;DHT22;11910;52.086;21.066;2023-04-24T00:19:20;12.80;67.30
23475;DHT22;11910;52.086;21.066;2023-04-24T00:21:46;12.70;68.30
23475;DHT22;11910;52.086;21.066;2023-04-24T00:24:15;12.70;66.40
23475;DHT22;11910;52.086;21.066;2023-04-24T00:26:41;12.70;65.80
23475;DHT22;11910;52.086;21.066;2023-04-24T00:29:07;12.60;67.20
23475;DHT22;11910;52.086;21.066;2023-04-24T00:31:32;12.60;68.50
23475;DHT22;11910;52.086;21.066;2023-04-24T00:34:00;12.60;68.70
23475;DHT22;11910;52.086;21.066;2023-04-24T00:36:26;12.60;68.80
23475;DHT22;11910;52.086;21.066;2023-04-24T00:38:53;12.60;69.40
23475;DHT22;11910;52.086;21.066;2023-04-24T00:41:18;12.60;70.30
23475;DHT22;11910;52.086;21.066;2023-04-24T00:43:44;12.60;68.60
23475;DHT22;11910;52.086;21.066;2023-04-24T00:46:10;12.60;67.60
23475;DHT22;11910;52.086;21.066;2023-04-24T00:48:38;12.60;68.70
23475;DHT22;11910;52.086;21.066;2023-04-24T00:51:04;12.50;69.50
23475;DHT22;11910;52.086;21.066;2023-04-24T00:53:30;12.50;69.70
23475;DHT22;11910;52.086;21.066;2023-04-24T00:55:56;12.50;69.90
23475;DHT22;11910;52.086;21.066;2023-04-24T00:58:22;12.50;68.60
23475;DHT22;11910;52.086;21.066;2023-04-24T01:00:49;12.60;69.70
23475;DHT22;11910;52.086;21.066;2023-04-24T01:03:22;12.50;70.20
23475;DHT22;11910;52.086;21.066;2023-04-24T01:05:49;12.30;70.50
23475;DHT22;11910;52.086;21.066;2023-04-24T01:08:15;12.10;71.40
23475;DHT22;11910;52.086;21.066;2023-04-24T01:10:41;12.10;71.40
23475;DHT22;11910;52.086;21.066;2023-04-24T01:13:08;12.30;70.70
23475;DHT22;11910;52.086;21.066;2023-04-24T01:15:34;12.40;71.00
23475;DHT22;11910;52.086;21.066;2023-04-24T01:18:00;12.40;71.00
23475;DHT22;11910;52.086;21.066;2023-04-24T01:20:26;12.40;71.30
23475;DHT22;11910;52.086;21.066;2023-04-24T01:22:52;12.50;71.50
23475;DHT22;11910;52.086;21.066;2023-04-24T01:25:20;12.60;71.60
23475;DHT22;11910;52.086;21.066;2023-04-24T01:27:45;12.60;71.90
23475;DHT22;11910;52.086;21.066;2023-04-24T01:30:12;12.50;71.90
23475;DHT22;11910;52.086;21.066;2023-04-24T01:32:38;12.40;72.00
23475;DHT22;11910;52.086;21.066;2023-04-24T01:35:04;12.50;71.00
23475;DHT22;11910;52.086;21.066;2023-04-24T01:37:30;12.50;71.10
23475;DHT22;11910;52.086;21.066;2023-04-24T01:39:57;12.50;71.90
23475;DHT22;11910;52.086;21.066;2023-04-24T01:42:23;12.50;71.60
23475;DHT22;11910;52.086;21.066;2023-04-24T01:44:49;12.50;71.50
23475;DHT22;11910;52.086;21.066;2023-04-24T01:47:15;12.50;71.90
23475;DHT22;11910;52.086;21.066;2023-04-24T01:49:41;12.40;72.00
23475;DHT22;11910;52.086;21.066;2023-04-24T01:52:06;12.50;71.90
23475;DHT22;11910;52.086;21.066;2023-04-24T01:54:32;12.50;71.20
23475;DHT22;11910;52.086;21.066;2023-04-24T01:56:58;12.60;71.70
23475;DHT22;11910;52.086;21.066;2023-04-24T01:59:25;12.60;70.40
23475;DHT22;11910;52.086;21.066;2023-04-24T02:01:51;12.60;70.90
23475;DHT22;11910;52.086;21.066;2023-04-24T02:04:17;12.70;71.10
23475;DHT22;11910;52.086;21.066;2023-04-24T02:06:43;12.60;71.40
23475;DHT22;11910;52.086;21.066;2023-04-24T02:09:08;12.60;71.40
23475;DHT22;11910;52.086;21.066;2023-04-24T02:11:34;12.60;70.20
23475;DHT22;11910;52.086;21.066;2023-04-24T02:13:59;12.60;70.50
23475;DHT22;11910;52.086;21.066;2023-04-24T02:16:26;12.60;70.60
23475;DHT22;11910;52.086;21.066;2023-04-24T02:18:51;12.50;70.20
23475;DHT22;11910;52.086;21.066;2023-04-24T02:21:17;12.50;70.30
23475;DHT22;11910;52.086;21.066;2023-04-24T02:23:42;12.40;71.00
23475;DHT22;11910;52.086;21.066;2023-04-24T02:26:08;12.30;72.50
23475;DHT22;11910;52.086;21.066;2023-04-24T02:28:34;11.90;73.60
23475;DHT22;11910;52.086;21.066;2023-04-24T02:30:59;11.70;74.60
23475;DHT22;11910;52.086;21.066;2023-04-24T02:33:25;11.60;75.10
23475;DHT22;11910;52.086;21.066;2023-04-24T02:35:51;11.70;73.40
23475;DHT22;11910;52.086;21.066;2023-04-24T02:38:16;11.70;72.90
23475;DHT22;11910;52.086;21.066;2023-04-24T02:40:42;11.70;73.80
23475;DHT22;11910;52.086;21.066;2023-04-24T02:43:07;11.70;74.20
23475;DHT22;11910;52.086;21.066;2023-04-24T02:45:33;11.70;74.30
23475;DHT22;11910;52.086;21.066;2023-04-24T02:48:00;11.70;74.30
23475;DHT22;11910;52.086;21.066;2023-04-24T02:50:25;11.70;73.80
23475;DHT22;11910;52.086;21.066;2023-04-24T02:52:51;11.70;70.70
23475;DHT22;11910;52.086;21.066;2023-04-24T02:55:16;11.80;71.40
23475;DHT22;11910;52.086;21.066;2023-04-24T02:57:42;11.80;71.50
23475;DHT22;11910;52.086;21.066;2023-04-24T03:00:08;11.80;71.60
23475;DHT22;11910;52.086;21.066;2023-04-24T03:02:34;11.80;71.10
23475;DHT22;11910;52.086;21.066;2023-04-24T03:05:00;11.80;71.40
23475;DHT22;11910;52.086;21.066;2023-04-24T03:07:25;11.80;71.50
23475;DHT22;11910;52.086;21.066;2023-04-24T03:09:51;11.80;71.50
23475;DHT22;11910;52.086;21.066;2023-04-24T03:12:16;11.70;71.50
23475;DHT22;11910;52.086;21.066;2023-04-24T03:14:43;11.70;71.60
23475;DHT22;11910;52.086;21.066;2023-04-24T03:17:09;11.60;72.60
23475;DHT22;11910;52.086;21.066;2023-04-24T03:19:34;11.50;73.40
23475;DHT22;11910;52.086;21.066;2023-04-24T03:22:02;11.40;74.00
23475;DHT22;11910;52.086;21.066;2023-04-24T03:24:28;11.40;71.00
23475;DHT22;11910;52.086;21.066;2023-04-24T03:26:53;11.40;70.40
23475;DHT22;11910;52.086;21.066;2023-04-24T03:29:19;11.40;70.90
23475;DHT22;11910;52.086;21.066;2023-04-24T03:31:45;11.40;71.90
23475;DHT22;11910;52.086;21.066;2023-04-24T03:34:10;11.40;72.70
23475;DHT22;11910;52.086;21.066;2023-04-24T03:36:36;11.40;72.60
23475;DHT22;11910;52.086;21.066;2023-04-24T03:39:02;11.30;73.60
23475;DHT22;11910;52.086;21.066;2023-04-24T03:41:27;11.10;74.60
23475;DHT22;11910;52.086;21.066;2023-04-24T03:43:53;11.00;75.50
23475;DHT22;11910;52.086;21.066;2023-04-24T03:46:18;11.00;76.50
23475;DHT22;11910;52.086;21.066;2023-04-24T03:48:44;11.00;77.20
23475;DHT22;11910;52.086;21.066;2023-04-24T03:51:10;11.00;76.30
23475;DHT22;11910;52.086;21.066;2023-04-24T03:53:36;11.00;75.60
23475;DHT22;11910;52.086;21.066;2023-04-24T03:56:01;10.90;76.40
23475;DHT22;11910;52.086;21.066;2023-04-24T03:58:27;10.80;77.20
23475;DHT22;11910;52.086;21.066;2023-04-24T04:00:53;10.90;76.50
23475;DHT22;11910;52.086;21.066;2023-04-24T04:03:18;11.00;77.10
23475;DHT22;11910;52.086;21.066;2023-04-24T04:05:44;11.10;76.10
23475;DHT22;11910;52.086;21.066;2023-04-24T04:08:09;11.10;76.30
23475;DHT22;11910;52.086;21.066;2023-04-24T04:10:35;11.10;76.90
23475;DHT22;11910;52.086;21.066;2023-04-24T04:13:01;11.00;77.10
23475;DHT22;11910;52.086;21.066;2023-04-24T04:15:26;11.10;78.60
23475;DHT22;11910;52.086;21.066;2023-04-24T04:17:52;11.10;78.10
23475;DHT22;11910;52.086;21.066;2023-04-24T04:20:17;11.20;77.90
23475;DHT22;11910;52.086;21.066;2023-04-24T04:22:43;11.30;78.40
23475;DHT22;11910;52.086;21.066;2023-04-24T04:25:08;11.40;79.10
23475;DHT22;11910;52.086;21.066;2023-04-24T04:27:34;11.50;77.30
23475;DHT22;11910;52.086;21.066;2023-04-24T04:30:03;11.60;78.10
23475;DHT22;11910;52.086;21.066;2023-04-24T04:32:33;11.60;78.20
23475;DHT22;11910;52.086;21.066;2023-04-24T04:35:02;11.70;77.60
23475;DHT22;11910;52.086;21.066;2023-04-24T04:37:32;11.70;78.30
23475;DHT22;11910;52.086;21.066;2023-04-24T04:39:58;11.80;78.30
23475;DHT22;11910;52.086;21.066;2023-04-24T04:42:27;11.90;79.00
23475;DHT22;11910;52.086;21.066;2023-04-24T04:44:53;12.00;78.80
23475;DHT22;11910;52.086;21.066;2023-04-24T04:47:21;12.10;78.80
23475;DHT22;11910;52.086;21.066;2023-04-24T04:49:50;12.10;78.20
23475;DHT22;11910;52.086;21.066;2023-04-24T04:52:18;12.20;77.40
23475;DHT22;11910;52.086;21.066;2023-04-24T04:54:44;12.30;77.10
23475;DHT22;11910;52.086;21.066;2023-04-24T04:57:11;12.40;79.00
23475;DHT22;11910;52.086;21.066;2023-04-24T04:59:37;12.50;79.30
23475;DHT22;11910;52.086;21.066;2023-04-24T05:02:03;12.50;78.40
23475;DHT22;11910;52.086;21.066;2023-04-24T05:04:29;12.50;77.00
23475;DHT22;11910;52.086;21.066;2023-04-24T05:06:55;12.50;76.50
23475;DHT22;11910;52.086;21.066;2023-04-24T05:09:21;12.60;76.10
23475;DHT22;11910;52.086;21.066;2023-04-24T05:11:47;12.60;77.20
23475;DHT22;11910;52.086;21.066;2023-04-24T05:14:12;12.80;77.50
23475;DHT22;11910;52.086;21.066;2023-04-24T05:16:39;12.90;75.60
23475;DHT22;11910;52.086;21.066;2023-04-24T05:19:04;13.00;73.70
23475;DHT22;11910;52.086;21.066;2023-04-24T05:21:30;13.10;74.40
23475;DHT22;11910;52.086;21.066;2023-04-24T05:23:56;13.20;73.10
23475;DHT22;11910;52.086;21.066;2023-04-24T05:26:22;13.30;71.50
23475;DHT22;11910;52.086;21.066;2023-04-24T05:28:48;13.40;71.10
23475;DHT22;11910;52.086;21.066;2023-04-24T05:31:13;13.50;71.10
23475;DHT22;11910;52.086;21.066;2023-04-24T05:33:39;13.60;69.90
23475;DHT22;11910;52.086;21.066;2023-04-24T05:36:06;13.80;70.00
23475;DHT22;11910;52.086;21.066;2023-04-24T05:38:32;13.90;70.30
23475;DHT22;11910;52.086;21.066;2023-04-24T05:40:57;14.00;69.30
23475;DHT22;11910;52.086;21.066;2023-04-24T05:43:23;14.10;69.60
23475;DHT22;11910;52.086;21.066;2023-04-24T05:45:48;14.20;68.40
23475;DHT22;11910;52.086;21.066;2023-04-24T05:48:14;14.40;69.60
23475;DHT22;11910;52.086;21.066;2023-04-24T05:50:40;14.50;69.40
23475;DHT22;11910;52.086;21.066;2023-04-24T05:53:08;14.60;68.30
23475;DHT22;11910;52.086;21.066;2023-04-24T05:55:36;14.70;68.10
23475;DHT22;11910;52.086;21.066;2023-04-24T05:58:01;14.90;67.20
23475;DHT22;11910;52.086;21.066;2023-04-24T06:00:27;15.00;67.30
23475;DHT22;11910;52.086;21.066;2023-04-24T06:02:54;15.30;66.80
23475;DHT22;11910;52.086;21.066;2023-04-24T06:05:19;15.40;66.40
23475;DHT22;11910;52.086;21.066;2023-04-24T06:07:47;15.70;65.60
23475;DHT22;11910;52.086;21.066;2023-04-24T06:10:13;16.00;65.00
23475;DHT22;11910;52.086;21.066;2023-04-24T06:12:39;16.30;63.90
23475;DHT22;11910;52.086;21.066;2023-04-24T06:15:05;16.60;62.80
23475;DHT22;11910;52.086;21.066;2023-04-24T06:17:31;16.90;62.50
23475;DHT22;11910;52.086;21.066;2023-04-24T06:19:57;17.10;61.30
23475;DHT22;11910;52.086;21.066;2023-04-24T06:22:23;17.50;61.50
23475;DHT22;11910;52.086;21.066;2023-04-24T06:24:48;17.80;59.30
23475;DHT22;11910;52.086;21.066;2023-04-24T06:27:14;18.10;58.70
23475;DHT22;11910;52.086;21.066;2023-04-24T06:29:40;18.40;58.10
23475;DHT22;11910;52.086;21.066;2023-04-24T06:32:05;18.60;57.70
23475;DHT22;11910;52.086;21.066;2023-04-24T06:34:31;18.70;58.20
23475;DHT22;11910;52.086;21.066;2023-04-24T06:36:58;18.90;58.00
23475;DHT22;11910;52.086;21.066;2023-04-24T06:39:23;18.90;57.40
23475;DHT22;11910;52.086;21.066;2023-04-24T06:41:49;18.70;57.90
23475;DHT22;11910;52.086;21.066;2023-04-24T06:44:15;18.60;57.50
23475;DHT22;11910;52.086;21.066;2023-04-24T06:46:41;18.50;57.40
23475;DHT22;11910;52.086;21.066;2023-04-24T06:49:06;18.50;57.60
23475;DHT22;11910;52.086;21.066;2023-04-24T06:51:32;18.50;58.40
23475;DHT22;11910;52.086;21.066;2023-04-24T06:54:01;18.60;57.60
23475;DHT22;11910;52.086;21.066;2023-04-24T06:56:27;18.70;57.10
23475;DHT22;11910;52.086;21.066;2023-04-24T06:58:54;18.70;58.10
23475;DHT22;11910;52.086;21.066;2023-04-24T07:01:20;19.00;58.10
23475;DHT22;11910;52.086;21.066;2023-04-24T07:03:46;19.20;58.20
23475;DHT22;11910;52.086;21.066;2023-04-24T07:06:12;19.40;57.90
23475;DHT22;11910;52.086;21.066;2023-04-24T07:08:38;19.60;57.50
23475;DHT22;11910;52.086;21.066;2023-04-24T07:11:04;19.90;57.00
23475;DHT22;11910;52.086;21.066;2023-04-24T07:13:31;20.10;56.00
23475;DHT22;11910;52.086;21.066;2023-04-24T07:15:56;20.40;55.80
23475;DHT22;11910;52.086;21.066;2023-04-24T07:18:22;20.80;55.20
23475;DHT22;11910;52.086;21.066;2023-04-24T07:20:48;21.10;54.70
23475;DHT22;11910;52.086;21.066;2023-04-24T07:23:16;21.30;54.20
23475;DHT22;11910;52.086;21.066;2023-04-24T07:25:41;21.50;53.40
23475;DHT22;11910;52.086;21.066;2023-04-24T07:28:07;21.60;54.70
23475;DHT22;11910;52.086;21.066;2023-04-24T07:30:33;21.70;54.10
23475;DHT22;11910;52.086;21.066;2023-04-24T07:32:59;21.90;53.10
23475;DHT22;11910;52.086;21.066;2023-04-24T07:35:25;22.10;52.50
23475;DHT22;11910;52.086;21.066;2023-04-24T07:37:53;22.30;52.10
23475;DHT22;11910;52.086;21.066;2023-04-24T07:40:20;22.60;51.80
23475;DHT22;11910;52.086;21.066;2023-04-24T07:42:45;22.70;50.30
23475;DHT22;11910;52.086;21.066;2023-04-24T07:45:14;22.90;50.70
23475;DHT22;11910;52.086;21.066;2023-04-24T07:47:41;23.00;49.90
23475;DHT22;11910;52.086;21.066;2023-04-24T07:50:09;23.30;49.50
23475;DHT22;11910;52.086;21.066;2023-04-24T07:52:35;23.50;49.20
23475;DHT22;11910;52.086;21.066;2023-04-24T07:55:01;23.60;48.50
23475;DHT22;11910;52.086;21.066;2023-04-24T07:57:27;23.60;48.50
23475;DHT22;11910;52.086;21.066;2023-04-24T07:59:53;23.80;48.60
23475;DHT22;11910;52.086;21.066;2023-04-24T08:02:18;24.00;48.80
23475;DHT22;11910;52.086;21.066;2023-04-24T08:04:44;24.10;48.70
23475;DHT22;11910;52.086;21.066;2023-04-24T08:07:10;24.30;48.00
23475;DHT22;11910;52.086;21.066;2023-04-24T08:09:38;24.40;48.00
23475;DHT22;11910;52.086;21.066;2023-04-24T08:12:03;24.80;47.80
23475;DHT22;11910;52.086;21.066;2023-04-24T08:14:29;25.30;48.40
23475;DHT22;11910;52.086;21.066;2023-04-24T08:16:56;25.50;46.50
23475;DHT22;11910;52.086;21.066;2023-04-24T08:19:22;25.80;47.50
23475;DHT22;11910;52.086;21.066;2023-04-24T08:21:47;26.20;47.90
23475;DHT22;11910;52.086;21.066;2023-04-24T08:24:13;26.30;44.70
23475;DHT22;11910;52.086;21.066;2023-04-24T08:26:39;25.90;43.50
23475;DHT22;11910;52.086;21.066;2023-04-24T08:29:05;25.90;43.90
23475;DHT22;11910;52.086;21.066;2023-04-24T08:31:32;25.80;44.30
23475;DHT22;11910;52.086;21.066;2023-04-24T08:33:57;26.10;44.40
23475;DHT22;11910;52.086;21.066;2023-04-24T08:36:24;25.80;43.70
23475;DHT22;11910;52.086;21.066;2023-04-24T08:38:49;25.80;45.10
23475;DHT22;11910;52.086;21.066;2023-04-24T08:41:15;25.70;44.00
23475;DHT22;11910;52.086;21.066;2023-04-24T08:43:43;25.70;43.70
23475;DHT22;11910;52.086;21.066;2023-04-24T08:46:12;25.60;42.30
23475;DHT22;11910;52.086;21.066;2023-04-24T08:48:39;25.70;43.00
23475;DHT22;11910;52.086;21.066;2023-04-24T08:51:07;26.10;43.60
23475;DHT22;11910;52.086;21.066;2023-04-24T08:53:33;26.80;43.20
23475;DHT22;11910;52.086;21.066;2023-04-24T08:56:01;27.30;43.90
23475;DHT22;11910;52.086;21.066;2023-04-24T08:58:27;27.80;43.80
23475;DHT22;11910;52.086;21.066;2023-04-24T09:00:57;28.20;42.50
23475;DHT22;11910;52.086;21.066;2023-04-24T09:03:23;28.50;41.40
23475;DHT22;11910;52.086;21.066;2023-04-24T09:05:49;28.40;42.00
23475;DHT22;11910;52.086;21.066;2023-04-24T09:08:18;28.20;42.60
23475;DHT22;11910;52.086;21.066;2023-04-24T09:10:44;28.50;42.70
23475;DHT22;11910;52.086;21.066;2023-04-24T09:13:10;28.90;41.40
23475;DHT22;11910;52.086;21.066;2023-04-24T09:15:37;29.20;40.50
23475;DHT22;11910;52.086;21.066;2023-04-24T09:18:03;29.60;40.30
23475;DHT22;11910;52.086;21.066;2023-04-24T09:20:29;29.80;40.40
23475;DHT22;11910;52.086;21.066;2023-04-24T09:22:57;30.00;40.70
23475;DHT22;11910;52.086;21.066;2023-04-24T09:25:32;30.10;39.70
23475;DHT22;11910;52.086;21.066;2023-04-24T09:28:05;30.30;39.90
23475;DHT22;11910;52.086;21.066;2023-04-24T09:30:32;30.50;39.40
23475;DHT22;11910;52.086;21.066;2023-04-24T09:33:14;30.30;39.10
23475;DHT22;11910;52.086;21.066;2023-04-24T09:35:41;30.60;38.30
23475;DHT22;11910;52.086;21.066;2023-04-24T09:38:08;30.70;38.50
23475;DHT22;11910;52.086;21.066;2023-04-24T09:40:34;30.70;38.10
23475;DHT22;11910;52.086;21.066;2023-04-24T09:43:00;31.10;38.30
23475;DHT22;11910;52.086;21.066;2023-04-24T09:45:35;31.50;37.20
23475;DHT22;11910;52.086;21.066;2023-04-24T09:48:01;32.00;37.90
23475;DHT22;11910;52.086;21.066;2023-04-24T09:50:29;32.60;36.60
23475;DHT22;11910;52.086;21.066;2023-04-24T09:52:58;32.80;35.10
23475;DHT22;11910;52.086;21.066;2023-04-24T09:55:25;32.90;34.60
23475;DHT22;11910;52.086;21.066;2023-04-24T09:57:58;33.00;34.20
23475;DHT22;11910;52.086;21.066;2023-04-24T10:03:10;33.40;34.90
23475;DHT22;11910;52.086;21.066;2023-04-24T10:05:37;33.10;34.30
23475;DHT22;11910;52.086;21.066;2023-04-24T10:08:11;33.20;35.10
23475;DHT22;11910;52.086;21.066;2023-04-24T10:10:42;33.40;34.50
23475;DHT22;11910;52.086;21.066;2023-04-24T10:13:09;33.30;34.50
23475;DHT22;11910;52.086;21.066;2023-04-24T10:15:37;33.20;34.20
23475;DHT22;11910;52.086;21.066;2023-04-24T10:18:04;33.40;33.40
23475;DHT22;11910;52.086;21.066;2023-04-24T10:20:31;33.80;33.20
23475;DHT22;11910;52.086;21.066;2023-04-24T10:22:59;33.90;32.30
23475;DHT22;11910;52.086;21.066;2023-04-24T10:25:27;34.30;32.20
23475;DHT22;11910;52.086;21.066;2023-04-24T10:27:54;34.40;31.50
23475;DHT22;11910;52.086;21.066;2023-04-24T10:30:26;34.50;31.70
23475;DHT22;11910;52.086;21.066;2023-04-24T10:32:52;34.80;30.60
23475;DHT22;11910;52.086;21.066;2023-04-24T10:35:18;35.20;30.80
23475;DHT22;11910;52.086;21.066;2023-04-24T10:38:05;35.10;29.80
23475;DHT22;11910;52.086;21.066;2023-04-24T10:40:33;34.50;29.50
23475;DHT22;11910;52.086;21.066;2023-04-24T10:43:01;35.30;30.70
23475;DHT22;11910;52.086;21.066;2023-04-24T10:45:27;35.60;29.50
23475;DHT22;11910;52.086;21.066;2023-04-24T10:48:07;35.80;29.50
23475;DHT22;11910;52.086;21.066;2023-04-24T10:50:47;35.60;28.50
23475;DHT22;11910;52.086;21.066;2023-04-24T10:53:15;36.10;29.70
23475;DHT22;11910;52.086;21.066;2023-04-24T10:56:05;36.40;28.30
23475;DHT22;11910;52.086;21.066;2023-04-24T10:58:38;36.40;29.20
23475;DHT22;11910;52.086;21.066;2023-04-24T11:01:05;36.70;30.00
23475;DHT22;11910;52.086;21.066;2023-04-24T11:03:32;37.10;28.80
23475;DHT22;11910;52.086;21.066;2023-04-24T11:08:44;36.50;28.30
23475;DHT22;11910;52.086;21.066;2023-04-24T11:11:14;36.30;29.40
23475;DHT22;11910;52.086;21.066;2023-04-24T11:19:08;36.60;29.60
23475;DHT22;11910;52.086;21.066;2023-04-24T11:24:24;36.50;29.70
23475;DHT22;11910;52.086;21.066;2023-04-24T11:32:15;37.20;29.50
23475;DHT22;11910;52.086;21.066;2023-04-24T11:34:52;35.80;29.50
23475;DHT22;11910;52.086;21.066;2023-04-24T11:37:17;36.30;31.40
23475;DHT22;11910;52.086;21.066;2023-04-24T11:39:43;37.00;30.30
23475;DHT22;11910;52.086;21.066;2023-04-24T11:42:09;37.30;30.60
23475;DHT22;11910;52.086;21.066;2023-04-24T11:44:35;37.10;29.40
23475;DHT22;11910;52.086;21.066;2023-04-24T11:47:05;37.10;30.00
23475;DHT22;11910;52.086;21.066;2023-04-24T11:49:32;37.20;29.20
23475;DHT22;11910;52.086;21.066;2023-04-24T11:51:57;37.20;29.70
23475;DHT22;11910;52.086;21.066;2023-04-24T11:54:23;36.90;29.40
23475;DHT22;11910;52.086;21.066;2023-04-24T11:56:49;37.10;29.50
23475;DHT22;11910;52.086;21.066;2023-04-24T11:59:15;37.30;28.20
23475;DHT22;11910;52.086;21.066;2023-04-24T12:01:44;37.20;27.90
23475;DHT22;11910;52.086;21.066;2023-04-24T12:04:11;37.10;27.60
23475;DHT22;11910;52.086;21.066;2023-04-24T12:06:37;37.00;28.20
23475;DHT22;11910;52.086;21.066;2023-04-24T12:09:03;36.90;28.90
23475;DHT22;11910;52.086;21.066;2023-04-24T12:11:28;36.70;28.50
23475;DHT22;11910;52.086;21.066;2023-04-24T12:13:54;36.30;28.10
23475;DHT22;11910;52.086;21.066;2023-04-24T12:16:20;35.90;28.60
23475;DHT22;11910;52.086;21.066;2023-04-24T12:18:46;35.60;28.90
23475;DHT22;11910;52.086;21.066;2023-04-24T12:21:24;35.10;29.90
23475;DHT22;11910;52.086;21.066;2023-04-24T12:23:54;34.60;29.80
23475;DHT22;11910;52.086;21.066;2023-04-24T12:26:21;34.20;30.50
23475;DHT22;11910;52.086;21.066;2023-04-24T12:28:49;33.40;30.40
23475;DHT22;11910;52.086;21.066;2023-04-24T12:31:16;31.50;31.60
23475;DHT22;11910;52.086;21.066;2023-04-24T12:33:42;30.60;33.60
23475;DHT22;11910;52.086;21.066;2023-04-24T12:36:10;30.30;33.90
23475;DHT22;11910;52.086;21.066;2023-04-24T12:38:38;28.70;35.60
23475;DHT22;11910;52.086;21.066;2023-04-24T12:41:11;29.00;35.80
23475;DHT22;11910;52.086;21.066;2023-04-24T12:43:37;29.20;36.30
23475;DHT22;11910;52.086;21.066;2023-04-24T12:46:03;29.60;35.60
23475;DHT22;11910;52.086;21.066;2023-04-24T12:48:30;29.60;35.30
23475;DHT22;11910;52.086;21.066;2023-04-24T12:50:59;29.90;35.40
23475;DHT22;11910;52.086;21.066;2023-04-24T12:53:28;29.50;35.70
23475;DHT22;11910;52.086;21.066;2023-04-24T12:55:57;30.10;35.70
23475;DHT22;11910;52.086;21.066;2023-04-24T12:58:23;30.40;34.90
23475;DHT22;11910;52.086;21.066;2023-04-24T13:00:48;29.10;35.30
23475;DHT22;11910;52.086;21.066;2023-04-24T13:03:14;29.10;36.30
23475;DHT22;11910;52.086;21.066;2023-04-24T13:05:41;29.00;36.40
23475;DHT22;11910;52.086;21.066;2023-04-24T13:08:07;29.30;36.70
23475;DHT22;11910;52.086;21.066;2023-04-24T13:10:34;29.40;36.50
23475;DHT22;11910;52.086;21.066;2023-04-24T13:13:00;29.80;35.40
23475;DHT22;11910;52.086;21.066;2023-04-24T13:15:25;30.40;35.30
23475;DHT22;11910;52.086;21.066;2023-04-24T13:17:51;30.00;34.80
23475;DHT22;11910;52.086;21.066;2023-04-24T13:20:17;28.80;36.30
23475;DHT22;11910;52.086;21.066;2023-04-24T13:22:43;27.80;37.60
23475;DHT22;11910;52.086;21.066;2023-04-24T13:25:08;27.00;38.50
23475;DHT22;11910;52.086;21.066;2023-04-24T13:27:35;27.40;38.70
23475;DHT22;11910;52.086;21.066;2023-04-24T13:30:01;27.90;38.60
23475;DHT22;11910;52.086;21.066;2023-04-24T13:32:26;28.00;37.70
23475;DHT22;11910;52.086;21.066;2023-04-24T13:34:53;27.10;39.00
23475;DHT22;11910;52.086;21.066;2023-04-24T13:37:19;26.80;40.00
23475;DHT22;11910;52.086;21.066;2023-04-24T13:39:45;26.10;40.90
23475;DHT22;11910;52.086;21.066;2023-04-24T13:42:10;25.30;41.50
23475;DHT22;11910;52.086;21.066;2023-04-24T13:44:36;24.80;41.70
23475;DHT22;11910;52.086;21.066;2023-04-24T13:47:01;24.60;42.60
23475;DHT22;11910;52.086;21.066;2023-04-24T13:49:28;23.90;43.20
23475;DHT22;11910;52.086;21.066;2023-04-24T13:51:55;23.50;43.70
23475;DHT22;11910;52.086;21.066;2023-04-24T13:54:20;23.40;42.10
23475;DHT22;11910;52.086;21.066;2023-04-24T13:56:47;23.50;41.80
23475;DHT22;11910;52.086;21.066;2023-04-24T13:59:13;23.70;40.90
23475;DHT22;11910;52.086;21.066;2023-04-24T14:01:38;24.70;40.30
23475;DHT22;11910;52.086;21.066;2023-04-24T14:04:04;25.70;39.00
23475;DHT22;11910;52.086;21.066;2023-04-24T14:06:30;27.00;37.80
23475;DHT22;11910;52.086;21.066;2023-04-24T14:08:56;28.40;36.20
23475;DHT22;11910;52.086;21.066;2023-04-24T14:11:22;29.30;34.60
23475;DHT22;11910;52.086;21.066;2023-04-24T14:13:48;30.20;34.40
23475;DHT22;11910;52.086;21.066;2023-04-24T14:16:14;31.00;32.80
23475;DHT22;11910;52.086;21.066;2023-04-24T14:18:40;30.00;32.70
23475;DHT22;11910;52.086;21.066;2023-04-24T14:21:05;29.30;32.60
23475;DHT22;11910;52.086;21.066;2023-04-24T14:23:31;28.60;32.70
23475;DHT22;11910;52.086;21.066;2023-04-24T14:25:57;28.20;33.20
23475;DHT22;11910;52.086;21.066;2023-04-24T14:28:23;28.00;33.70
23475;DHT22;11910;52.086;21.066;2023-04-24T14:30:49;27.60;34.50
23475;DHT22;11910;52.086;21.066;2023-04-24T14:33:15;27.30;34.00
23475;DHT22;11910;52.086;21.066;2023-04-24T14:35:41;26.90;33.50
23475;DHT22;11910;52.086;21.066;2023-04-24T14:38:10;26.70;35.40
23475;DHT22;11910;52.086;21.066;2023-04-24T14:40:37;26.20;34.70
23475;DHT22;11910;52.086;21.066;2023-04-24T14:43:02;26.10;34.80
23475;DHT22;11910;52.086;21.066;2023-04-24T14:45:28;26.70;33.70
23475;DHT22;11910;52.086;21.066;2023-04-24T14:47:54;26.40;34.20
23475;DHT22;11910;52.086;21.066;2023-04-24T14:50:20;26.50;34.60
23475;DHT22;11910;52.086;21.066;2023-04-24T14:52:47;26.50;33.50
23475;DHT22;11910;52.086;21.066;2023-04-24T14:55:13;27.30;33.50
23475;DHT22;11910;52.086;21.066;2023-04-24T14:57:38;28.30;31.80
23475;DHT22;11910;52.086;21.066;2023-04-24T15:00:06;27.60;32.00
23475;DHT22;11910;52.086;21.066;2023-04-24T15:02:34;27.20;32.50
23475;DHT22;11910;52.086;21.066;2023-04-24T15:04:59;26.90;34.00
23475;DHT22;11910;52.086;21.066;2023-04-24T15:07:25;28.60;32.70
23475;DHT22;11910;52.086;21.066;2023-04-24T15:09:50;27.90;32.00
23475;DHT22;11910;52.086;21.066;2023-04-24T15:12:16;29.00;32.50
23475;DHT22;11910;52.086;21.066;2023-04-24T15:14:42;28.00;32.30
23475;DHT22;11910;52.086;21.066;2023-04-24T15:17:07;28.00;32.80
23475;DHT22;11910;52.086;21.066;2023-04-24T15:19:33;28.60;33.00
23475;DHT22;11910;52.086;21.066;2023-04-24T15:21:58;29.40;30.90
23475;DHT22;11910;52.086;21.066;2023-04-24T15:24:24;30.20;30.90
23475;DHT22;11910;52.086;21.066;2023-04-24T15:26:50;30.80;30.00
23475;DHT22;11910;52.086;21.066;2023-04-24T15:29:16;31.10;29.50
23475;DHT22;11910;52.086;21.066;2023-04-24T15:31:41;31.80;30.10